Ann Marie Rose — WDA320 — position and weather

sailwx.info

Track history (hours):
 
Tides and Currents Weather Stations Pressure Air Temp Water Temp Dewpoint Dewpoint Depression Visibility Wind Speed Wind Dir Waves Ship Positions

Ann Marie Rose

Last reported at 2014-Jul-28 13:31 UTC. Time now 2014-Jul-30 21:26 UTC.
Position N 34°48' W 076°41'.

Length 14 m.

Type: Pleasure craft. MMSI: 338095872.

Date/timePositionNaut miles runAvg speedWind from/ knotsBaromVisibWave heightAir tempDewpointWater temp
2014-Jul-28 13:31N 34°48' W 076°41'0 0.0
2014-Jul-28 12:31N 34°48' W 076°41'0 0.0
2014-Jul-28 11:31N 34°48' W 076°41'0 0.0
2014-Jul-28 10:31N 34°48' W 076°41'0 0.0
2014-Jul-28 09:31N 34°48' W 076°41'0 0.0
2014-Jul-28 08:31N 34°48' W 076°41'0 0.0
2014-Jul-28 07:31N 34°48' W 076°41'0 0.0
2014-Jul-28 06:31N 34°48' W 076°41'0 0.0
2014-Jul-28 05:31N 34°48' W 076°41'0 0.0
2014-Jul-28 04:31N 34°48' W 076°41'0 0.0
2014-Jul-28 03:31N 34°48' W 076°41'0 0.0
2014-Jul-28 02:31N 34°48' W 076°41'0 0.0
2014-Jul-28 01:31N 34°48' W 076°41'0 0.0
2014-Jul-28 00:31N 34°48' W 076°41'0 0.0
2014-Jul-27 23:31N 34°48' W 076°41'0 0.0
2014-Jul-27 22:31N 34°48' W 076°41'0 0.0
2014-Jul-27 21:31N 34°48' W 076°41'0 0.0
2014-Jul-27 20:31N 34°48' W 076°41'0 0.0
2014-Jul-27 19:31N 34°48' W 076°41'0 0.0
2014-Jul-27 18:31N 34°48' W 076°41'0 0.0
2014-Jul-27 17:31N 34°48' W 076°41'0 0.0
2014-Jul-27 16:31N 34°48' W 076°41'0 0.0
2014-Jul-27 15:31N 34°48' W 076°41'0 0.0
2014-Jul-27 14:31N 34°48' W 076°41'0 0.0
2014-Jul-27 13:31N 34°48' W 076°41'0 0.0
2014-Jul-27 12:31N 34°48' W 076°41'5 5.5
2014-Jul-27 11:33N 34°43' W 076°42'7 6.9
2014-Jul-27 10:33N 34°39' W 076°35'2 1.9
2014-Jul-27 09:26N 34°38' W 076°33'0 0.0
2014-Jul-27 08:29N 34°38' W 076°33'0 0.0
2014-Jul-27 07:26N 34°38' W 076°33'0 0.1
2014-Jul-27 05:22N 34°38' W 076°33'6 7.3
2014-Jul-27 04:33N 34°37' W 076°40'  
Track history (hours):
 
Tides and Currents Weather Stations Pressure Air Temp Water Temp Dewpoint Dewpoint Depression Visibility Wind Speed Wind Dir Waves Ship Positions

Ann Marie Rose

Last reported at 2014-Jul-28 13:31 UTC. Time now 2014-Jul-30 21:26 UTC.
Position N 34°48' W 076°41'.

Length 14 m.

Type: Pleasure craft. MMSI: 338095872.

Date/timePositionNaut miles runAvg speedWind from/ knotsBaromVisibWave heightAir tempDewpointWater temp
2014-Jul-28 13:31N 34°48' W 076°41'0 0.0
2014-Jul-28 12:31N 34°48' W 076°41'0 0.0
2014-Jul-28 11:31N 34°48' W 076°41'0 0.0
2014-Jul-28 10:31N 34°48' W 076°41'0 0.0
2014-Jul-28 09:31N 34°48' W 076°41'0 0.0
2014-Jul-28 08:31N 34°48' W 076°41'0 0.0
2014-Jul-28 07:31N 34°48' W 076°41'0 0.0
2014-Jul-28 06:31N 34°48' W 076°41'0 0.0
2014-Jul-28 05:31N 34°48' W 076°41'0 0.0
2014-Jul-28 04:31N 34°48' W 076°41'0 0.0
2014-Jul-28 03:31N 34°48' W 076°41'0 0.0
2014-Jul-28 02:31N 34°48' W 076°41'0 0.0
2014-Jul-28 01:31N 34°48' W 076°41'0 0.0
2014-Jul-28 00:31N 34°48' W 076°41'0 0.0
2014-Jul-27 23:31N 34°48' W 076°41'0 0.0
2014-Jul-27 22:31N 34°48' W 076°41'0 0.0
2014-Jul-27 21:31N 34°48' W 076°41'0 0.0
2014-Jul-27 20:31N 34°48' W 076°41'0 0.0
2014-Jul-27 19:31N 34°48' W 076°41'0 0.0
2014-Jul-27 18:31N 34°48' W 076°41'0 0.0
2014-Jul-27 17:31N 34°48' W 076°41'0 0.0
2014-Jul-27 16:31N 34°48' W 076°41'0 0.0
2014-Jul-27 15:31N 34°48' W 076°41'0 0.0
2014-Jul-27 14:31N 34°48' W 076°41'0 0.0
2014-Jul-27 13:31N 34°48' W 076°41'0 0.0
2014-Jul-27 12:31N 34°48' W 076°41'5 5.5
2014-Jul-27 11:33N 34°43' W 076°42'7 6.9
2014-Jul-27 10:33N 34°39' W 076°35'2 1.9
2014-Jul-27 09:26N 34°38' W 076°33'0 0.0
2014-Jul-27 08:29N 34°38' W 076°33'0 0.0
2014-Jul-27 07:26N 34°38' W 076°33'0 0.1
2014-Jul-27 05:22N 34°38' W 076°33'6 7.3
2014-Jul-27 04:33N 34°37' W 076°40'  

Dump ship's entire track history